sensor_id;sensor_type;location;lat;lon;timestamp;temperature;humidity
5779;DHT22;2916;49.798;10.022;2022-08-24T00:01:07;19.30;1.00
5779;DHT22;2916;49.798;10.022;2022-08-24T00:03:36;19.20;1.00
5779;DHT22;2916;49.798;10.022;2022-08-24T00:06:08;19.20;1.00
5779;DHT22;2916;49.798;10.022;2022-08-24T00:08:38;19.20;1.00
5779;DHT22;2916;49.798;10.022;2022-08-24T00:11:06;19.20;1.00
5779;DHT22;2916;49.798;10.022;2022-08-24T00:13:34;19.10;1.00
5779;DHT22;2916;49.798;10.022;2022-08-24T00:16:03;19.10;1.00
5779;DHT22;2916;49.798;10.022;2022-08-24T00:18:31;19.10;1.00
5779;DHT22;2916;49.798;10.022;2022-08-24T00:20:59;19.00;1.00
5779;DHT22;2916;49.798;10.022;2022-08-24T00:23:28;18.90;1.00
5779;DHT22;2916;49.798;10.022;2022-08-24T00:25:55;18.90;1.00
5779;DHT22;2916;49.798;10.022;2022-08-24T00:28:23;18.80;1.00
5779;DHT22;2916;49.798;10.022;2022-08-24T00:30:50;18.80;1.00
5779;DHT22;2916;49.798;10.022;2022-08-24T00:33:18;18.70;1.00
5779;DHT22;2916;49.798;10.022;2022-08-24T00:35:45;18.70;1.00
5779;DHT22;2916;49.798;10.022;2022-08-24T00:38:12;18.70;1.00
5779;DHT22;2916;49.798;10.022;2022-08-24T00:40:44;18.60;1.00
5779;DHT22;2916;49.798;10.022;2022-08-24T00:43:16;18.60;1.00
5779;DHT22;2916;49.798;10.022;2022-08-24T00:45:50;18.70;1.00
5779;DHT22;2916;49.798;10.022;2022-08-24T00:48:31;18.70;1.00
5779;DHT22;2916;49.798;10.022;2022-08-24T00:51:05;18.60;1.00
5779;DHT22;2916;49.798;10.022;2022-08-24T00:53:40;18.40;1.00
5779;DHT22;2916;49.798;10.022;2022-08-24T00:56:20;18.50;1.00
5779;DHT22;2916;49.798;10.022;2022-08-24T00:58:58;18.40;1.00
5779;DHT22;2916;49.798;10.022;2022-08-24T01:01:30;18.30;1.00
5779;DHT22;2916;49.798;10.022;2022-08-24T01:04:01;18.20;1.00
5779;DHT22;2916;49.798;10.022;2022-08-24T01:06:30;18.20;1.00
5779;DHT22;2916;49.798;10.022;2022-08-24T01:08:58;18.20;1.00
5779;DHT22;2916;49.798;10.022;2022-08-24T01:11:29;18.20;1.00
5779;DHT22;2916;49.798;10.022;2022-08-24T01:13:58;18.20;1.00
5779;DHT22;2916;49.798;10.022;2022-08-24T01:16:27;18.10;1.00
5779;DHT22;2916;49.798;10.022;2022-08-24T01:19:20;18.10;1.00
5779;DHT22;2916;49.798;10.022;2022-08-24T01:22:04;18.10;1.00
5779;DHT22;2916;49.798;10.022;2022-08-24T01:24:41;18.10;1.00
5779;DHT22;2916;49.798;10.022;2022-08-24T01:27:11;18.00;1.00
5779;DHT22;2916;49.798;10.022;2022-08-24T01:29:40;17.90;1.00
5779;DHT22;2916;49.798;10.022;2022-08-24T01:32:11;17.90;1.00
5779;DHT22;2916;49.798;10.022;2022-08-24T01:34:38;17.80;1.00
5779;DHT22;2916;49.798;10.022;2022-08-24T01:37:07;17.80;1.00
5779;DHT22;2916;49.798;10.022;2022-08-24T01:39:39;17.70;1.00
5779;DHT22;2916;49.798;10.022;2022-08-24T01:42:10;17.70;1.00
5779;DHT22;2916;49.798;10.022;2022-08-24T01:44:41;17.70;1.00
5779;DHT22;2916;49.798;10.022;2022-08-24T01:47:12;17.70;1.00
5779;DHT22;2916;49.798;10.022;2022-08-24T01:49:44;17.70;1.00
5779;DHT22;2916;49.798;10.022;2022-08-24T01:52:15;17.60;1.00
5779;DHT22;2916;49.798;10.022;2022-08-24T01:54:47;17.60;1.00
5779;DHT22;2916;49.798;10.022;2022-08-24T01:57:15;17.60;1.00
5779;DHT22;2916;49.798;10.022;2022-08-24T01:59:43;17.60;1.00
5779;DHT22;2916;49.798;10.022;2022-08-24T02:02:12;17.50;1.00
5779;DHT22;2916;49.798;10.022;2022-08-24T02:04:41;17.60;1.00
5779;DHT22;2916;49.798;10.022;2022-08-24T02:07:09;17.50;1.00
5779;DHT22;2916;49.798;10.022;2022-08-24T02:09:36;17.50;1.00
5779;DHT22;2916;49.798;10.022;2022-08-24T02:12:06;17.50;1.40
5779;DHT22;2916;49.798;10.022;2022-08-24T02:14:34;17.40;2.90
5779;DHT22;2916;49.798;10.022;2022-08-24T02:17:02;17.40;1.00
5779;DHT22;2916;49.798;10.022;2022-08-24T02:19:30;17.40;2.50
5779;DHT22;2916;49.798;10.022;2022-08-24T02:21:57;17.40;4.20
5779;DHT22;2916;49.798;10.022;2022-08-24T02:24:25;17.40;1.00
5779;DHT22;2916;49.798;10.022;2022-08-24T02:26:53;17.40;6.20
5779;DHT22;2916;49.798;10.022;2022-08-24T02:29:22;17.30;3.80
5779;DHT22;2916;49.798;10.022;2022-08-24T02:31:49;17.30;3.70
5779;DHT22;2916;49.798;10.022;2022-08-24T02:34:17;17.20;3.20
5779;DHT22;2916;49.798;10.022;2022-08-24T02:36:44;17.20;7.40
5779;DHT22;2916;49.798;10.022;2022-08-24T02:39:11;17.10;7.30
5779;DHT22;2916;49.798;10.022;2022-08-24T02:41:38;17.20;6.20
5779;DHT22;2916;49.798;10.022;2022-08-24T02:44:06;17.20;6.90
5779;DHT22;2916;49.798;10.022;2022-08-24T02:46:34;17.10;5.00
5779;DHT22;2916;49.798;10.022;2022-08-24T02:49:02;17.10;7.10
5779;DHT22;2916;49.798;10.022;2022-08-24T02:51:32;17.10;11.20
5779;DHT22;2916;49.798;10.022;2022-08-24T02:54:00;17.00;10.50
5779;DHT22;2916;49.798;10.022;2022-08-24T02:56:30;17.00;20.50
5779;DHT22;2916;49.798;10.022;2022-08-24T02:58:58;16.90;17.60
5779;DHT22;2916;49.798;10.022;2022-08-24T03:01:26;16.90;25.30
5779;DHT22;2916;49.798;10.022;2022-08-24T03:03:55;16.90;21.20
5779;DHT22;2916;49.798;10.022;2022-08-24T03:06:23;16.80;21.60
5779;DHT22;2916;49.798;10.022;2022-08-24T03:08:50;16.80;17.10
5779;DHT22;2916;49.798;10.022;2022-08-24T03:11:17;16.80;20.80
5779;DHT22;2916;49.798;10.022;2022-08-24T03:13:44;16.80;19.90
5779;DHT22;2916;49.798;10.022;2022-08-24T03:16:12;16.70;22.00
5779;DHT22;2916;49.798;10.022;2022-08-24T03:18:39;16.70;28.60
5779;DHT22;2916;49.798;10.022;2022-08-24T03:21:08;16.70;28.80
5779;DHT22;2916;49.798;10.022;2022-08-24T03:23:36;16.70;34.90
5779;DHT22;2916;49.798;10.022;2022-08-24T03:26:03;16.80;33.50
5779;DHT22;2916;49.798;10.022;2022-08-24T03:28:30;16.70;24.90
5779;DHT22;2916;49.798;10.022;2022-08-24T03:30:57;16.60;29.10
5779;DHT22;2916;49.798;10.022;2022-08-24T03:33:25;16.60;27.60
5779;DHT22;2916;49.798;10.022;2022-08-24T03:35:52;16.60;32.70
5779;DHT22;2916;49.798;10.022;2022-08-24T03:38:21;16.60;33.00
5779;DHT22;2916;49.798;10.022;2022-08-24T03:40:48;16.60;33.70
5779;DHT22;2916;49.798;10.022;2022-08-24T03:43:16;16.50;38.70
5779;DHT22;2916;49.798;10.022;2022-08-24T03:45:57;16.50;38.50
5779;DHT22;2916;49.798;10.022;2022-08-24T03:48:27;16.50;71.50
5779;DHT22;2916;49.798;10.022;2022-08-24T03:50:54;16.50;84.60
5779;DHT22;2916;49.798;10.022;2022-08-24T03:53:23;16.50;66.10
5779;DHT22;2916;49.798;10.022;2022-08-24T03:55:51;16.40;67.90
5779;DHT22;2916;49.798;10.022;2022-08-24T03:58:18;16.40;90.90
5779;DHT22;2916;49.798;10.022;2022-08-24T04:00:45;16.40;99.50
5779;DHT22;2916;49.798;10.022;2022-08-24T04:03:13;16.30;99.90
5779;DHT22;2916;49.798;10.022;2022-08-24T04:05:41;16.30;99.90
5779;DHT22;2916;49.798;10.022;2022-08-24T04:08:08;16.30;99.90
5779;DHT22;2916;49.798;10.022;2022-08-24T04:10:43;16.30;99.60
5779;DHT22;2916;49.798;10.022;2022-08-24T04:13:10;16.30;99.90
5779;DHT22;2916;49.798;10.022;2022-08-24T04:15:39;16.30;99.90
5779;DHT22;2916;49.798;10.022;2022-08-24T04:18:08;16.20;96.80
5779;DHT22;2916;49.798;10.022;2022-08-24T04:20:39;16.30;96.10
5779;DHT22;2916;49.798;10.022;2022-08-24T04:23:08;16.30;92.50
5779;DHT22;2916;49.798;10.022;2022-08-24T04:25:42;16.30;93.80
5779;DHT22;2916;49.798;10.022;2022-08-24T04:28:12;16.20;92.30
5779;DHT22;2916;49.798;10.022;2022-08-24T04:30:44;16.20;97.90
5779;DHT22;2916;49.798;10.022;2022-08-24T04:33:16;16.20;96.50
5779;DHT22;2916;49.798;10.022;2022-08-24T04:35:46;16.10;93.80
5779;DHT22;2916;49.798;10.022;2022-08-24T04:38:15;16.10;91.30
5779;DHT22;2916;49.798;10.022;2022-08-24T04:40:46;16.10;91.50
5779;DHT22;2916;49.798;10.022;2022-08-24T04:43:14;16.10;91.90
5779;DHT22;2916;49.798;10.022;2022-08-24T04:45:44;16.00;91.50
5779;DHT22;2916;49.798;10.022;2022-08-24T04:48:15;16.00;92.30
5779;DHT22;2916;49.798;10.022;2022-08-24T04:50:43;16.00;98.40
5779;DHT22;2916;49.798;10.022;2022-08-24T04:53:11;16.00;99.90
5779;DHT22;2916;49.798;10.022;2022-08-24T04:55:47;16.10;99.90
5779;DHT22;2916;49.798;10.022;2022-08-24T04:58:16;16.10;99.90
5779;DHT22;2916;49.798;10.022;2022-08-24T05:00:44;16.10;99.90
5779;DHT22;2916;49.798;10.022;2022-08-24T05:03:12;16.10;99.90
5779;DHT22;2916;49.798;10.022;2022-08-24T05:05:40;16.10;99.90
5779;DHT22;2916;49.798;10.022;2022-08-24T05:08:08;16.20;99.90
5779;DHT22;2916;49.798;10.022;2022-08-24T05:10:37;16.20;99.90
5779;DHT22;2916;49.798;10.022;2022-08-24T05:13:06;16.30;99.90
5779;DHT22;2916;49.798;10.022;2022-08-24T05:15:34;16.30;99.90
5779;DHT22;2916;49.798;10.022;2022-08-24T05:18:05;16.70;99.90
5779;DHT22;2916;49.798;10.022;2022-08-24T05:20:33;17.40;99.90
5779;DHT22;2916;49.798;10.022;2022-08-24T05:23:01;18.20;88.20
5779;DHT22;2916;49.798;10.022;2022-08-24T05:25:28;18.90;50.30
5779;DHT22;2916;49.798;10.022;2022-08-24T05:27:55;19.60;26.40
5779;DHT22;2916;49.798;10.022;2022-08-24T05:30:24;20.10;12.60
5779;DHT22;2916;49.798;10.022;2022-08-24T05:32:51;20.70;5.70
5779;DHT22;2916;49.798;10.022;2022-08-24T05:35:18;21.10;1.00
5779;DHT22;2916;49.798;10.022;2022-08-24T05:37:46;21.70;1.00
5779;DHT22;2916;49.798;10.022;2022-08-24T05:40:16;22.20;1.00
5779;DHT22;2916;49.798;10.022;2022-08-24T05:42:44;22.40;1.00
5779;DHT22;2916;49.798;10.022;2022-08-24T05:45:12;21.90;1.00
5779;DHT22;2916;49.798;10.022;2022-08-24T05:47:41;21.50;1.00
5779;DHT22;2916;49.798;10.022;2022-08-24T05:50:08;21.10;1.00
5779;DHT22;2916;49.798;10.022;2022-08-24T05:52:36;21.20;1.00
5779;DHT22;2916;49.798;10.022;2022-08-24T05:55:04;22.00;1.00
5779;DHT22;2916;49.798;10.022;2022-08-24T05:57:33;21.90;1.00
5779;DHT22;2916;49.798;10.022;2022-08-24T06:00:03;23.20;1.00
5779;DHT22;2916;49.798;10.022;2022-08-24T06:02:32;24.10;1.00
5779;DHT22;2916;49.798;10.022;2022-08-24T06:05:01;24.60;1.00
5779;DHT22;2916;49.798;10.022;2022-08-24T06:07:28;25.00;1.00
5779;DHT22;2916;49.798;10.022;2022-08-24T06:09:55;24.80;1.00
5779;DHT22;2916;49.798;10.022;2022-08-24T06:12:22;25.30;1.00
5779;DHT22;2916;49.798;10.022;2022-08-24T06:14:49;25.60;1.00
5779;DHT22;2916;49.798;10.022;2022-08-24T06:17:16;24.80;1.00
5779;DHT22;2916;49.798;10.022;2022-08-24T06:19:44;23.70;1.00
5779;DHT22;2916;49.798;10.022;2022-08-24T06:22:12;24.20;1.00
5779;DHT22;2916;49.798;10.022;2022-08-24T06:24:39;24.30;1.00
5779;DHT22;2916;49.798;10.022;2022-08-24T06:27:24;23.90;1.00
5779;DHT22;2916;49.798;10.022;2022-08-24T06:29:53;24.00;1.00
5779;DHT22;2916;49.798;10.022;2022-08-24T06:32:21;24.70;1.00
5779;DHT22;2916;49.798;10.022;2022-08-24T06:34:48;24.20;1.00
5779;DHT22;2916;49.798;10.022;2022-08-24T06:37:17;24.30;1.00
5779;DHT22;2916;49.798;10.022;2022-08-24T06:39:44;25.00;1.00
5779;DHT22;2916;49.798;10.022;2022-08-24T06:42:11;24.80;1.00
5779;DHT22;2916;49.798;10.022;2022-08-24T06:44:38;24.60;1.00
5779;DHT22;2916;49.798;10.022;2022-08-24T06:47:06;24.30;1.00
5779;DHT22;2916;49.798;10.022;2022-08-24T06:49:33;24.50;1.00
5779;DHT22;2916;49.798;10.022;2022-08-24T06:52:02;24.70;1.00
5779;DHT22;2916;49.798;10.022;2022-08-24T06:54:31;24.70;1.00
5779;DHT22;2916;49.798;10.022;2022-08-24T06:56:59;25.00;1.00
5779;DHT22;2916;49.798;10.022;2022-08-24T06:59:26;24.70;1.00
5779;DHT22;2916;49.798;10.022;2022-08-24T07:01:53;25.30;1.00
5779;DHT22;2916;49.798;10.022;2022-08-24T07:04:21;24.00;1.00
5779;DHT22;2916;49.798;10.022;2022-08-24T07:06:49;24.50;1.00
5779;DHT22;2916;49.798;10.022;2022-08-24T07:09:17;25.10;1.00
5779;DHT22;2916;49.798;10.022;2022-08-24T07:11:46;25.00;1.00
5779;DHT22;2916;49.798;10.022;2022-08-24T07:14:13;25.50;1.00
5779;DHT22;2916;49.798;10.022;2022-08-24T07:16:41;25.40;1.00
5779;DHT22;2916;49.798;10.022;2022-08-24T07:19:09;25.50;1.00
5779;DHT22;2916;49.798;10.022;2022-08-24T07:21:36;26.10;1.00
5779;DHT22;2916;49.798;10.022;2022-08-24T07:24:04;26.00;1.00
5779;DHT22;2916;49.798;10.022;2022-08-24T07:26:32;26.50;1.00
5779;DHT22;2916;49.798;10.022;2022-08-24T07:29:03;26.40;1.00
5779;DHT22;2916;49.798;10.022;2022-08-24T07:31:32;26.30;1.00
5779;DHT22;2916;49.798;10.022;2022-08-24T07:34:00;27.10;1.00
5779;DHT22;2916;49.798;10.022;2022-08-24T07:36:28;27.00;1.00
5779;DHT22;2916;49.798;10.022;2022-08-24T07:38:56;27.20;1.00
5779;DHT22;2916;49.798;10.022;2022-08-24T07:41:24;27.10;1.00
5779;DHT22;2916;49.798;10.022;2022-08-24T07:43:52;27.00;1.00
5779;DHT22;2916;49.798;10.022;2022-08-24T07:46:22;27.20;1.00
5779;DHT22;2916;49.798;10.022;2022-08-24T07:48:49;26.60;1.00
5779;DHT22;2916;49.798;10.022;2022-08-24T07:51:17;26.30;1.00
5779;DHT22;2916;49.798;10.022;2022-08-24T07:53:45;25.30;1.00
5779;DHT22;2916;49.798;10.022;2022-08-24T07:56:12;26.30;1.00
5779;DHT22;2916;49.798;10.022;2022-08-24T07:58:39;27.60;1.00
5779;DHT22;2916;49.798;10.022;2022-08-24T08:01:06;27.70;1.00
5779;DHT22;2916;49.798;10.022;2022-08-24T08:03:35;27.20;1.00
5779;DHT22;2916;49.798;10.022;2022-08-24T08:06:07;26.80;1.00
5779;DHT22;2916;49.798;10.022;2022-08-24T08:08:36;27.00;1.00
5779;DHT22;2916;49.798;10.022;2022-08-24T08:11:04;27.30;1.00
5779;DHT22;2916;49.798;10.022;2022-08-24T08:13:33;27.80;1.00
5779;DHT22;2916;49.798;10.022;2022-08-24T08:16:03;28.10;1.00
5779;DHT22;2916;49.798;10.022;2022-08-24T08:18:31;26.10;1.00
5779;DHT22;2916;49.798;10.022;2022-08-24T08:21:01;26.40;1.00
5779;DHT22;2916;49.798;10.022;2022-08-24T08:23:28;27.30;1.00
5779;DHT22;2916;49.798;10.022;2022-08-24T08:26:15;26.80;1.00
5779;DHT22;2916;49.798;10.022;2022-08-24T08:28:45;28.20;1.00
5779;DHT22;2916;49.798;10.022;2022-08-24T08:31:13;28.20;1.00
5779;DHT22;2916;49.798;10.022;2022-08-24T08:33:40;27.50;1.00
5779;DHT22;2916;49.798;10.022;2022-08-24T08:36:11;27.30;1.00
5779;DHT22;2916;49.798;10.022;2022-08-24T08:38:41;28.30;1.00
5779;DHT22;2916;49.798;10.022;2022-08-24T08:41:27;28.90;1.00
5779;DHT22;2916;49.798;10.022;2022-08-24T08:44:34;28.40;1.00
5779;DHT22;2916;49.798;10.022;2022-08-24T08:47:20;27.00;1.00
5779;DHT22;2916;49.798;10.022;2022-08-24T08:50:06;27.90;1.00
5779;DHT22;2916;49.798;10.022;2022-08-24T08:53:10;28.00;1.00
5779;DHT22;2916;49.798;10.022;2022-08-24T08:55:59;27.90;1.00
5779;DHT22;2916;49.798;10.022;2022-08-24T08:58:52;26.90;1.00
5779;DHT22;2916;49.798;10.022;2022-08-24T09:01:34;26.80;1.00
5779;DHT22;2916;49.798;10.022;2022-08-24T09:04:44;27.20;1.00
5779;DHT22;2916;49.798;10.022;2022-08-24T09:07:30;27.20;1.00
5779;DHT22;2916;49.798;10.022;2022-08-24T09:10:24;28.40;1.00
5779;DHT22;2916;49.798;10.022;2022-08-24T09:13:16;28.30;1.00
5779;DHT22;2916;49.798;10.022;2022-08-24T09:16:06;27.90;1.00
5779;DHT22;2916;49.798;10.022;2022-08-24T09:18:51;28.00;1.00
5779;DHT22;2916;49.798;10.022;2022-08-24T09:21:43;27.70;1.00
5779;DHT22;2916;49.798;10.022;2022-08-24T09:24:45;28.20;1.00
5779;DHT22;2916;49.798;10.022;2022-08-24T09:27:39;28.90;1.00
5779;DHT22;2916;49.798;10.022;2022-08-24T09:30:14;28.50;1.00
5779;DHT22;2916;49.798;10.022;2022-08-24T09:32:56;28.00;1.00
5779;DHT22;2916;49.798;10.022;2022-08-24T09:35:33;29.50;1.00
5779;DHT22;2916;49.798;10.022;2022-08-24T09:38:19;29.80;1.00
5779;DHT22;2916;49.798;10.022;2022-08-24T09:41:23;29.80;1.00
5779;DHT22;2916;49.798;10.022;2022-08-24T09:47:58;28.60;1.00
5779;DHT22;2916;49.798;10.022;2022-08-24T09:54:35;29.70;1.00
5779;DHT22;2916;49.798;10.022;2022-08-24T09:57:32;28.70;1.00
5779;DHT22;2916;49.798;10.022;2022-08-24T10:00:16;29.20;1.00
5779;DHT22;2916;49.798;10.022;2022-08-24T10:03:08;30.10;1.00
5779;DHT22;2916;49.798;10.022;2022-08-24T10:05:58;30.10;1.00
5779;DHT22;2916;49.798;10.022;2022-08-24T10:08:54;29.50;1.00
5779;DHT22;2916;49.798;10.022;2022-08-24T10:11:41;29.70;1.00
5779;DHT22;2916;49.798;10.022;2022-08-24T10:14:26;30.10;1.00
5779;DHT22;2916;49.798;10.022;2022-08-24T10:17:15;30.90;1.00
5779;DHT22;2916;49.798;10.022;2022-08-24T10:20:04;30.40;1.00
5779;DHT22;2916;49.798;10.022;2022-08-24T10:23:09;30.90;1.00
5779;DHT22;2916;49.798;10.022;2022-08-24T10:26:02;30.80;1.00
5779;DHT22;2916;49.798;10.022;2022-08-24T10:29:05;30.70;1.00
5779;DHT22;2916;49.798;10.022;2022-08-24T10:32:03;31.50;1.00
5779;DHT22;2916;49.798;10.022;2022-08-24T10:34:57;30.80;1.00
5779;DHT22;2916;49.798;10.022;2022-08-24T10:38:20;29.60;1.00
5779;DHT22;2916;49.798;10.022;2022-08-24T10:44:52;30.90;1.00
5779;DHT22;2916;49.798;10.022;2022-08-24T10:47:28;30.90;1.00
5779;DHT22;2916;49.798;10.022;2022-08-24T10:50:24;30.60;1.00
5779;DHT22;2916;49.798;10.022;2022-08-24T10:53:16;30.80;1.00
5779;DHT22;2916;49.798;10.022;2022-08-24T10:55:59;30.70;1.00
5779;DHT22;2916;49.798;10.022;2022-08-24T10:58:51;30.30;1.00
5779;DHT22;2916;49.798;10.022;2022-08-24T11:01:29;29.90;1.00
5779;DHT22;2916;49.798;10.022;2022-08-24T11:04:05;30.50;1.00
5779;DHT22;2916;49.798;10.022;2022-08-24T11:06:37;30.80;1.00
5779;DHT22;2916;49.798;10.022;2022-08-24T11:09:09;30.40;1.00
5779;DHT22;2916;49.798;10.022;2022-08-24T11:11:40;30.90;1.00
5779;DHT22;2916;49.798;10.022;2022-08-24T11:14:23;31.30;1.00
5779;DHT22;2916;49.798;10.022;2022-08-24T11:17:12;31.60;1.00
5779;DHT22;2916;49.798;10.022;2022-08-24T11:19:43;31.70;1.00
5779;DHT22;2916;49.798;10.022;2022-08-24T11:22:26;32.30;1.00
5779;DHT22;2916;49.798;10.022;2022-08-24T11:25:14;32.80;1.00
5779;DHT22;2916;49.798;10.022;2022-08-24T11:27:49;31.90;1.00
5779;DHT22;2916;49.798;10.022;2022-08-24T11:30:23;31.60;1.00
5779;DHT22;2916;49.798;10.022;2022-08-24T11:32:55;30.80;1.00
5779;DHT22;2916;49.798;10.022;2022-08-24T11:35:27;31.00;1.00
5779;DHT22;2916;49.798;10.022;2022-08-24T11:38:07;30.80;1.00
5779;DHT22;2916;49.798;10.022;2022-08-24T11:40:52;31.00;1.00
5779;DHT22;2916;49.798;10.022;2022-08-24T11:43:42;31.20;1.00
5779;DHT22;2916;49.798;10.022;2022-08-24T11:46:27;31.20;1.00
5779;DHT22;2916;49.798;10.022;2022-08-24T11:49:06;31.20;1.00
5779;DHT22;2916;49.798;10.022;2022-08-24T11:51:47;30.90;1.00
5779;DHT22;2916;49.798;10.022;2022-08-24T11:54:24;30.80;1.00
5779;DHT22;2916;49.798;10.022;2022-08-24T11:57:07;31.50;1.00
5779;DHT22;2916;49.798;10.022;2022-08-24T11:59:43;32.00;1.00
5779;DHT22;2916;49.798;10.022;2022-08-24T12:02:22;32.30;1.00
5779;DHT22;2916;49.798;10.022;2022-08-24T12:05:03;32.60;1.00
5779;DHT22;2916;49.798;10.022;2022-08-24T12:07:48;32.70;1.00
5779;DHT22;2916;49.798;10.022;2022-08-24T12:10:30;32.70;1.00
5779;DHT22;2916;49.798;10.022;2022-08-24T12:13:14;33.00;1.00
5779;DHT22;2916;49.798;10.022;2022-08-24T12:15:59;32.50;1.00
5779;DHT22;2916;49.798;10.022;2022-08-24T12:18:44;32.50;1.00
5779;DHT22;2916;49.798;10.022;2022-08-24T12:21:20;31.80;1.00
5779;DHT22;2916;49.798;10.022;2022-08-24T12:23:56;32.00;1.00
5779;DHT22;2916;49.798;10.022;2022-08-24T12:26:29;32.60;1.00
5779;DHT22;2916;49.798;10.022;2022-08-24T12:29:05;32.20;1.00
5779;DHT22;2916;49.798;10.022;2022-08-24T12:31:41;31.80;1.00
5779;DHT22;2916;49.798;10.022;2022-08-24T12:34:17;32.10;1.00
5779;DHT22;2916;49.798;10.022;2022-08-24T12:36:59;32.30;1.00
5779;DHT22;2916;49.798;10.022;2022-08-24T12:39:37;32.30;1.00
5779;DHT22;2916;49.798;10.022;2022-08-24T12:42:14;32.30;1.00
5779;DHT22;2916;49.798;10.022;2022-08-24T12:44:49;31.90;1.00
5779;DHT22;2916;49.798;10.022;2022-08-24T12:47:24;31.80;1.00
5779;DHT22;2916;49.798;10.022;2022-08-24T12:50:03;31.70;1.00
5779;DHT22;2916;49.798;10.022;2022-08-24T12:52:49;31.50;1.00
5779;DHT22;2916;49.798;10.022;2022-08-24T12:55:56;31.90;1.00
5779;DHT22;2916;49.798;10.022;2022-08-24T12:59:11;32.20;1.00
5779;DHT22;2916;49.798;10.022;2022-08-24T13:01:56;32.10;1.00
5779;DHT22;2916;49.798;10.022;2022-08-24T13:04:33;31.50;1.00
5779;DHT22;2916;49.798;10.022;2022-08-24T13:07:07;31.30;1.00
5779;DHT22;2916;49.798;10.022;2022-08-24T13:09:40;31.30;1.00
5779;DHT22;2916;49.798;10.022;2022-08-24T13:15:54;31.50;1.00
5779;DHT22;2916;49.798;10.022;2022-08-24T13:18:50;31.80;1.00
5779;DHT22;2916;49.798;10.022;2022-08-24T13:21:37;32.00;1.00
5779;DHT22;2916;49.798;10.022;2022-08-24T13:30:57;31.90;1.00
5779;DHT22;2916;49.798;10.022;2022-08-24T13:33:33;32.00;1.00
5779;DHT22;2916;49.798;10.022;2022-08-24T13:39:33;31.90;1.00
5779;DHT22;2916;49.798;10.022;2022-08-24T13:42:29;32.40;1.00
5779;DHT22;2916;49.798;10.022;2022-08-24T13:45:32;31.90;1.00
5779;DHT22;2916;49.798;10.022;2022-08-24T13:48:21;31.90;1.00
5779;DHT22;2916;49.798;10.022;2022-08-24T13:51:28;31.90;1.00
5779;DHT22;2916;49.798;10.022;2022-08-24T13:54:25;31.20;1.00
5779;DHT22;2916;49.798;10.022;2022-08-24T13:57:08;31.50;1.00
5779;DHT22;2916;49.798;10.022;2022-08-24T14:00:15;31.40;1.00
5779;DHT22;2916;49.798;10.022;2022-08-24T14:03:19;31.60;1.00
5779;DHT22;2916;49.798;10.022;2022-08-24T14:06:17;31.80;1.00
5779;DHT22;2916;49.798;10.022;2022-08-24T14:08:58;31.40;1.00
5779;DHT22;2916;49.798;10.022;2022-08-24T14:11:53;31.70;1.00
5779;DHT22;2916;49.798;10.022;2022-08-24T14:17:42;31.60;1.00
5779;DHT22;2916;49.798;10.022;2022-08-24T14:23:25;31.80;1.00
5779;DHT22;2916;49.798;10.022;2022-08-24T14:29:30;31.50;1.00
5779;DHT22;2916;49.798;10.022;2022-08-24T14:35:34;31.90;1.00
5779;DHT22;2916;49.798;10.022;2022-08-24T14:38:23;31.10;1.00
5779;DHT22;2916;49.798;10.022;2022-08-24T14:41:09;31.10;1.00
5779;DHT22;2916;49.798;10.022;2022-08-24T14:44:02;30.70;1.00
5779;DHT22;2916;49.798;10.022;2022-08-24T14:46:39;31.20;1.00
5779;DHT22;2916;49.798;10.022;2022-08-24T14:49:23;31.10;1.00
5779;DHT22;2916;49.798;10.022;2022-08-24T14:52:09;31.50;1.00
5779;DHT22;2916;49.798;10.022;2022-08-24T14:54:55;31.40;1.00
5779;DHT22;2916;49.798;10.022;2022-08-24T14:57:56;31.40;1.00
5779;DHT22;2916;49.798;10.022;2022-08-24T15:00:47;31.00;1.00
5779;DHT22;2916;49.798;10.022;2022-08-24T15:03:52;31.30;1.00
5779;DHT22;2916;49.798;10.022;2022-08-24T15:06:35;31.70;1.00
5779;DHT22;2916;49.798;10.022;2022-08-24T15:09:21;31.60;1.00
5779;DHT22;2916;49.798;10.022;2022-08-24T15:11:51;31.30;1.00
5779;DHT22;2916;49.798;10.022;2022-08-24T15:14:31;31.20;1.00
5779;DHT22;2916;49.798;10.022;2022-08-24T15:17:06;31.10;1.00
5779;DHT22;2916;49.798;10.022;2022-08-24T15:19:45;31.00;1.00
5779;DHT22;2916;49.798;10.022;2022-08-24T15:22:28;31.40;1.00
5779;DHT22;2916;49.798;10.022;2022-08-24T15:25:10;31.30;1.00
5779;DHT22;2916;49.798;10.022;2022-08-24T15:27:48;31.20;1.00
5779;DHT22;2916;49.798;10.022;2022-08-24T15:30:22;30.90;1.00
5779;DHT22;2916;49.798;10.022;2022-08-24T15:33:00;31.20;1.00
5779;DHT22;2916;49.798;10.022;2022-08-24T15:35:34;31.40;1.00
5779;DHT22;2916;49.798;10.022;2022-08-24T15:38:21;31.30;1.00
5779;DHT22;2916;49.798;10.022;2022-08-24T15:40:53;31.20;1.00
5779;DHT22;2916;49.798;10.022;2022-08-24T15:43:30;31.20;1.00
5779;DHT22;2916;49.798;10.022;2022-08-24T15:45:58;31.30;1.00
5779;DHT22;2916;49.798;10.022;2022-08-24T15:48:26;30.90;1.00
5779;DHT22;2916;49.798;10.022;2022-08-24T15:50:56;31.10;1.00
5779;DHT22;2916;49.798;10.022;2022-08-24T15:53:34;31.10;1.00
5779;DHT22;2916;49.798;10.022;2022-08-24T15:56:29;30.70;1.00
5779;DHT22;2916;49.798;10.022;2022-08-24T15:59:10;30.50;1.00
5779;DHT22;2916;49.798;10.022;2022-08-24T16:01:39;30.60;1.00
5779;DHT22;2916;49.798;10.022;2022-08-24T16:04:42;30.80;1.00
5779;DHT22;2916;49.798;10.022;2022-08-24T16:07:14;30.30;1.00
5779;DHT22;2916;49.798;10.022;2022-08-24T16:10:00;30.40;1.00
5779;DHT22;2916;49.798;10.022;2022-08-24T16:12:30;30.60;1.00
5779;DHT22;2916;49.798;10.022;2022-08-24T16:15:10;30.50;1.00
5779;DHT22;2916;49.798;10.022;2022-08-24T16:17:46;30.30;1.00
5779;DHT22;2916;49.798;10.022;2022-08-24T16:20:29;30.30;1.00
5779;DHT22;2916;49.798;10.022;2022-08-24T16:23:00;30.30;1.00
5779;DHT22;2916;49.798;10.022;2022-08-24T16:25:34;30.30;1.00
5779;DHT22;2916;49.798;10.022;2022-08-24T16:28:07;30.30;1.00
5779;DHT22;2916;49.798;10.022;2022-08-24T16:30:46;30.10;1.00
5779;DHT22;2916;49.798;10.022;2022-08-24T16:33:38;29.90;1.00
5779;DHT22;2916;49.798;10.022;2022-08-24T16:36:09;29.90;1.00
5779;DHT22;2916;49.798;10.022;2022-08-24T16:38:39;29.90;1.00
5779;DHT22;2916;49.798;10.022;2022-08-24T16:41:15;30.00;1.00
5779;DHT22;2916;49.798;10.022;2022-08-24T16:43:45;30.00;1.00
5779;DHT22;2916;49.798;10.022;2022-08-24T16:46:18;30.00;1.00
5779;DHT22;2916;49.798;10.022;2022-08-24T16:48:46;29.80;1.00
5779;DHT22;2916;49.798;10.022;2022-08-24T16:51:13;29.80;1.00
5779;DHT22;2916;49.798;10.022;2022-08-24T16:53:40;29.70;1.00
5779;DHT22;2916;49.798;10.022;2022-08-24T16:56:07;29.60;1.00
5779;DHT22;2916;49.798;10.022;2022-08-24T16:58:36;29.60;1.00
5779;DHT22;2916;49.798;10.022;2022-08-24T17:01:03;29.30;1.00
5779;DHT22;2916;49.798;10.022;2022-08-24T17:03:30;29.30;1.00
5779;DHT22;2916;49.798;10.022;2022-08-24T17:05:58;29.30;1.00
5779;DHT22;2916;49.798;10.022;2022-08-24T17:08:26;29.30;1.00
5779;DHT22;2916;49.798;10.022;2022-08-24T17:10:54;29.20;1.00
5779;DHT22;2916;49.798;10.022;2022-08-24T17:13:22;29.10;1.00
5779;DHT22;2916;49.798;10.022;2022-08-24T17:15:51;29.00;1.00
5779;DHT22;2916;49.798;10.022;2022-08-24T17:18:18;29.00;1.00
5779;DHT22;2916;49.798;10.022;2022-08-24T17:20:45;29.00;1.00
5779;DHT22;2916;49.798;10.022;2022-08-24T17:23:13;29.10;1.00
5779;DHT22;2916;49.798;10.022;2022-08-24T17:25:40;29.00;1.00
5779;DHT22;2916;49.798;10.022;2022-08-24T17:28:09;29.10;1.00
5779;DHT22;2916;49.798;10.022;2022-08-24T17:30:39;29.00;1.00